Airfield :
LOGIN :

Register | Disclaimer

   EN    FR    IT 

 










Legend :    VFR   Marginal VFR   IFR   Intensive IFR   Very Intensive IFR
Visi :
Ceiling :
>= 8 km
>= 3000ft
5 to 8 km
1000 to 3000 ft
1500m to 5 km
500 to 1000 ft
800 to 1500m
200 to 500 ft
< 800m
< 200 ft
Symbols :   Thunderstorms  Fog  Heavy snow  Heavy precipitations  Wind > 20 kt
SIGMETs :     Misc.  Thunderstorms  Icing  Turbulence  Mountain Waves  Volcanic Ashes






- Airport Elevation : 18 ft


LIPC - Cervia AFB Ravenna

CURRENT METAR :
  • 281355Z 10011KT CAVOK 23/08 Q1022 RMK BKN FEW090 SCT150 VIS MIN 9999 WIND THR11 11012KT WIND THR29 11011KT BLU

EXPIRED METARs :
  • 281255Z 09013KT CAVOK 23/08 Q1023 RMK BKN SCT090 SCT150 VIS MIN 9999 WIND THR11 10013KT WIND THR29 11012KT BLU
  • 281155Z 10012KT CAVOK 23/08 Q1023

TAF TAF LIPC
Valid from the 28 at 12:00 until the 28 at 21:00 UTC


281100Z 2812/2821 11012KT CAVOK
BECMG 2819/2821 05006KT 9999 BKN060



MET'MAP, your aeronautical weather chart ! - Copyright ORBIFLY December 2007 - Disclaimer

ORBIFLY MET'MAP TEAM :

Programming & Development : Alexandra Zaïnal
Concept & original design : Baudouin d'Aumeries
Assistance for programming : Marc-Olivier Méhu
Technical & hardware support : Manuel Goepfert

Contact : metmap@orbifly.com




SOURCES & CREDITS :

   NOAA